sensor_id;sensor_type;location;lat;lon;timestamp;P1;durP1;ratioP1;P2;durP2;ratioP2
38196;SDS011;26543;51.976;4.616;2023-02-15T00:01:23;41.88;;;19.10;;
38196;SDS011;26543;51.976;4.616;2023-02-15T00:03:49;37.55;;;21.85;;
38196;SDS011;26543;51.976;4.616;2023-02-15T00:06:15;39.60;;;19.00;;
38196;SDS011;26543;51.976;4.616;2023-02-15T00:08:41;36.60;;;18.67;;
38196;SDS011;26543;51.976;4.616;2023-02-15T00:11:10;31.95;;;20.38;;
38196;SDS011;26543;51.976;4.616;2023-02-15T00:13:38;30.35;;;18.80;;
38196;SDS011;26543;51.976;4.616;2023-02-15T00:16:07;33.38;;;19.27;;
38196;SDS011;26543;51.976;4.616;2023-02-15T00:18:34;33.47;;;20.25;;
38196;SDS011;26543;51.976;4.616;2023-02-15T00:21:03;36.35;;;20.50;;
38196;SDS011;26543;51.976;4.616;2023-02-15T00:23:30;32.83;;;20.17;;
38196;SDS011;26543;51.976;4.616;2023-02-15T00:26:09;30.83;;;19.65;;
38196;SDS011;26543;51.976;4.616;2023-02-15T00:28:35;29.50;;;18.33;;
38196;SDS011;26543;51.976;4.616;2023-02-15T00:31:10;30.05;;;18.35;;
38196;SDS011;26543;51.976;4.616;2023-02-15T00:33:37;28.95;;;16.73;;
38196;SDS011;26543;51.976;4.616;2023-02-15T00:36:05;36.20;;;19.48;;
38196;SDS011;26543;51.976;4.616;2023-02-15T00:38:32;28.95;;;16.60;;
38196;SDS011;26543;51.976;4.616;2023-02-15T00:40:58;24.38;;;16.25;;
38196;SDS011;26543;51.976;4.616;2023-02-15T00:43:26;28.42;;;15.98;;
38196;SDS011;26543;51.976;4.616;2023-02-15T00:45:52;31.85;;;18.48;;
38196;SDS011;26543;51.976;4.616;2023-02-15T00:48:17;24.10;;;15.85;;
38196;SDS011;26543;51.976;4.616;2023-02-15T00:50:46;34.08;;;20.10;;
38196;SDS011;26543;51.976;4.616;2023-02-15T00:53:15;31.98;;;16.55;;
38196;SDS011;26543;51.976;4.616;2023-02-15T00:55:41;24.52;;;15.05;;
38196;SDS011;26543;51.976;4.616;2023-02-15T00:58:08;28.08;;;15.70;;
38196;SDS011;26543;51.976;4.616;2023-02-15T01:00:35;25.60;;;14.88;;
38196;SDS011;26543;51.976;4.616;2023-02-15T01:03:01;28.30;;;16.38;;
38196;SDS011;26543;51.976;4.616;2023-02-15T01:05:26;24.23;;;15.13;;
38196;SDS011;26543;51.976;4.616;2023-02-15T01:07:52;31.77;;;16.65;;
38196;SDS011;26543;51.976;4.616;2023-02-15T01:10:17;25.48;;;15.63;;
38196;SDS011;26543;51.976;4.616;2023-02-15T01:12:43;23.80;;;14.93;;
38196;SDS011;26543;51.976;4.616;2023-02-15T01:15:08;26.05;;;14.18;;
38196;SDS011;26543;51.976;4.616;2023-02-15T01:17:34;24.05;;;14.57;;
38196;SDS011;26543;51.976;4.616;2023-02-15T01:20:00;24.55;;;15.55;;
38196;SDS011;26543;51.976;4.616;2023-02-15T01:22:25;26.27;;;17.67;;
38196;SDS011;26543;51.976;4.616;2023-02-15T01:24:51;25.55;;;14.98;;
38196;SDS011;26543;51.976;4.616;2023-02-15T01:27:16;20.20;;;14.70;;
38196;SDS011;26543;51.976;4.616;2023-02-15T01:29:42;28.70;;;16.17;;
38196;SDS011;26543;51.976;4.616;2023-02-15T01:32:07;26.20;;;14.45;;
38196;SDS011;26543;51.976;4.616;2023-02-15T01:34:33;28.52;;;16.00;;
38196;SDS011;26543;51.976;4.616;2023-02-15T01:36:58;27.33;;;14.20;;
38196;SDS011;26543;51.976;4.616;2023-02-15T01:39:24;27.25;;;14.95;;
38196;SDS011;26543;51.976;4.616;2023-02-15T01:41:49;24.10;;;13.95;;
38196;SDS011;26543;51.976;4.616;2023-02-15T01:55:47;25.67;;;14.88;;
38196;SDS011;26543;51.976;4.616;2023-02-15T01:58:18;20.10;;;13.57;;
38196;SDS011;26543;51.976;4.616;2023-02-15T02:00:45;23.67;;;15.50;;
38196;SDS011;26543;51.976;4.616;2023-02-15T02:03:10;26.83;;;15.00;;
38196;SDS011;26543;51.976;4.616;2023-02-15T02:05:39;30.60;;;14.70;;
38196;SDS011;26543;51.976;4.616;2023-02-15T02:08:06;22.75;;;14.10;;
38196;SDS011;26543;51.976;4.616;2023-02-15T02:10:34;21.85;;;14.20;;
38196;SDS011;26543;51.976;4.616;2023-02-15T02:13:02;20.38;;;13.43;;
38196;SDS011;26543;51.976;4.616;2023-02-15T02:27:07;19.00;;;11.85;;
38196;SDS011;26543;51.976;4.616;2023-02-15T02:29:53;20.33;;;11.93;;
38196;SDS011;26543;51.976;4.616;2023-02-15T02:35:18;19.95;;;11.77;;
38196;SDS011;26543;51.976;4.616;2023-02-15T02:40:48;21.63;;;14.07;;
38196;SDS011;26543;51.976;4.616;2023-02-15T02:43:32;19.33;;;11.98;;
38196;SDS011;26543;51.976;4.616;2023-02-15T02:46:40;17.65;;;13.32;;
38196;SDS011;26543;51.976;4.616;2023-02-15T02:49:29;20.30;;;12.13;;
38196;SDS011;26543;51.976;4.616;2023-02-15T02:52:02;27.23;;;14.77;;
38196;SDS011;26543;51.976;4.616;2023-02-15T02:54:33;20.63;;;10.65;;
38196;SDS011;26543;51.976;4.616;2023-02-15T02:57:02;19.45;;;12.32;;
38196;SDS011;26543;51.976;4.616;2023-02-15T02:59:33;18.40;;;11.55;;
38196;SDS011;26543;51.976;4.616;2023-02-15T03:02:25;19.85;;;12.10;;
38196;SDS011;26543;51.976;4.616;2023-02-15T03:04:55;20.92;;;11.63;;
38196;SDS011;26543;51.976;4.616;2023-02-15T03:07:28;27.63;;;13.80;;
38196;SDS011;26543;51.976;4.616;2023-02-15T03:10:00;20.25;;;12.52;;
38196;SDS011;26543;51.976;4.616;2023-02-15T03:12:33;22.70;;;11.80;;
38196;SDS011;26543;51.976;4.616;2023-02-15T03:17:29;23.75;;;13.73;;
38196;SDS011;26543;51.976;4.616;2023-02-15T03:19:59;21.35;;;12.15;;
38196;SDS011;26543;51.976;4.616;2023-02-15T03:22:36;18.00;;;11.10;;
38196;SDS011;26543;51.976;4.616;2023-02-15T03:25:31;17.45;;;12.10;;
38196;SDS011;26543;51.976;4.616;2023-02-15T03:28:05;24.88;;;12.05;;
38196;SDS011;26543;51.976;4.616;2023-02-15T03:30:33;18.77;;;12.05;;
38196;SDS011;26543;51.976;4.616;2023-02-15T03:33:00;17.80;;;12.60;;
38196;SDS011;26543;51.976;4.616;2023-02-15T03:38:28;17.92;;;11.32;;
38196;SDS011;26543;51.976;4.616;2023-02-15T03:41:01;17.65;;;12.25;;
38196;SDS011;26543;51.976;4.616;2023-02-15T03:49:02;17.90;;;10.82;;
38196;SDS011;26543;51.976;4.616;2023-02-15T03:51:33;17.42;;;11.10;;
38196;SDS011;26543;51.976;4.616;2023-02-15T03:54:04;21.58;;;13.27;;
38196;SDS011;26543;51.976;4.616;2023-02-15T03:58:59;28.67;;;13.80;;
38196;SDS011;26543;51.976;4.616;2023-02-15T04:01:46;19.90;;;12.50;;
38196;SDS011;26543;51.976;4.616;2023-02-15T04:04:22;25.80;;;13.40;;
38196;SDS011;26543;51.976;4.616;2023-02-15T04:06:51;19.80;;;12.55;;
38196;SDS011;26543;51.976;4.616;2023-02-15T04:09:17;18.60;;;11.63;;
38196;SDS011;26543;51.976;4.616;2023-02-15T04:12:00;26.65;;;14.10;;
38196;SDS011;26543;51.976;4.616;2023-02-15T04:14:26;25.73;;;14.98;;
38196;SDS011;26543;51.976;4.616;2023-02-15T04:17:10;19.00;;;12.65;;
38196;SDS011;26543;51.976;4.616;2023-02-15T04:19:35;21.58;;;13.27;;
38196;SDS011;26543;51.976;4.616;2023-02-15T04:22:19;28.70;;;15.15;;
38196;SDS011;26543;51.976;4.616;2023-02-15T04:25:04;28.77;;;14.07;;
38196;SDS011;26543;51.976;4.616;2023-02-15T04:27:37;30.02;;;15.10;;
38196;SDS011;26543;51.976;4.616;2023-02-15T04:30:03;31.13;;;15.35;;
38196;SDS011;26543;51.976;4.616;2023-02-15T04:32:38;25.02;;;15.38;;
38196;SDS011;26543;51.976;4.616;2023-02-15T04:35:04;33.20;;;16.13;;
38196;SDS011;26543;51.976;4.616;2023-02-15T04:37:31;30.48;;;15.30;;
38196;SDS011;26543;51.976;4.616;2023-02-15T04:39:57;24.60;;;15.30;;
38196;SDS011;26543;51.976;4.616;2023-02-15T04:42:27;30.40;;;13.85;;
38196;SDS011;26543;51.976;4.616;2023-02-15T04:44:53;22.48;;;15.43;;
38196;SDS011;26543;51.976;4.616;2023-02-15T04:47:19;20.45;;;12.10;;
38196;SDS011;26543;51.976;4.616;2023-02-15T04:49:44;27.58;;;14.57;;
38196;SDS011;26543;51.976;4.616;2023-02-15T04:52:09;29.63;;;16.13;;
38196;SDS011;26543;51.976;4.616;2023-02-15T04:54:35;26.85;;;14.30;;
38196;SDS011;26543;51.976;4.616;2023-02-15T04:57:06;26.15;;;14.07;;
38196;SDS011;26543;51.976;4.616;2023-02-15T04:59:32;22.42;;;12.52;;
38196;SDS011;26543;51.976;4.616;2023-02-15T05:01:57;27.67;;;14.50;;
38196;SDS011;26543;51.976;4.616;2023-02-15T05:04:23;23.45;;;13.82;;
38196;SDS011;26543;51.976;4.616;2023-02-15T05:06:48;25.02;;;14.38;;
38196;SDS011;26543;51.976;4.616;2023-02-15T05:09:14;25.40;;;14.05;;
38196;SDS011;26543;51.976;4.616;2023-02-15T05:11:39;26.63;;;15.48;;
38196;SDS011;26543;51.976;4.616;2023-02-15T05:14:05;28.40;;;14.07;;
38196;SDS011;26543;51.976;4.616;2023-02-15T05:16:33;25.45;;;15.13;;
38196;SDS011;26543;51.976;4.616;2023-02-15T05:18:59;25.10;;;14.90;;
38196;SDS011;26543;51.976;4.616;2023-02-15T05:21:24;30.35;;;14.40;;
38196;SDS011;26543;51.976;4.616;2023-02-15T05:23:50;28.05;;;14.75;;
38196;SDS011;26543;51.976;4.616;2023-02-15T05:26:16;22.77;;;15.27;;
38196;SDS011;26543;51.976;4.616;2023-02-15T05:29:02;25.15;;;15.70;;
38196;SDS011;26543;51.976;4.616;2023-02-15T05:31:30;21.55;;;14.88;;
38196;SDS011;26543;51.976;4.616;2023-02-15T05:33:56;27.88;;;15.05;;
38196;SDS011;26543;51.976;4.616;2023-02-15T05:36:22;23.50;;;12.90;;
38196;SDS011;26543;51.976;4.616;2023-02-15T05:38:47;23.50;;;13.30;;
38196;SDS011;26543;51.976;4.616;2023-02-15T05:41:13;25.55;;;15.10;;
38196;SDS011;26543;51.976;4.616;2023-02-15T05:43:38;33.03;;;14.98;;
38196;SDS011;26543;51.976;4.616;2023-02-15T05:46:04;21.58;;;14.73;;
38196;SDS011;26543;51.976;4.616;2023-02-15T05:48:29;27.67;;;13.63;;
38196;SDS011;26543;51.976;4.616;2023-02-15T05:53:24;23.73;;;13.95;;
38196;SDS011;26543;51.976;4.616;2023-02-15T05:55:50;23.90;;;14.55;;
38196;SDS011;26543;51.976;4.616;2023-02-15T05:58:16;27.60;;;15.57;;
38196;SDS011;26543;51.976;4.616;2023-02-15T06:00:41;28.88;;;12.32;;
38196;SDS011;26543;51.976;4.616;2023-02-15T06:03:06;24.13;;;14.25;;
38196;SDS011;26543;51.976;4.616;2023-02-15T06:05:32;27.33;;;14.95;;
38196;SDS011;26543;51.976;4.616;2023-02-15T06:07:57;18.33;;;11.98;;
38196;SDS011;26543;51.976;4.616;2023-02-15T06:10:22;27.60;;;14.40;;
38196;SDS011;26543;51.976;4.616;2023-02-15T06:12:48;23.50;;;12.82;;
38196;SDS011;26543;51.976;4.616;2023-02-15T06:15:13;24.13;;;12.82;;
38196;SDS011;26543;51.976;4.616;2023-02-15T06:17:40;20.83;;;13.50;;
38196;SDS011;26543;51.976;4.616;2023-02-15T06:20:07;25.35;;;13.77;;
38196;SDS011;26543;51.976;4.616;2023-02-15T06:22:33;24.63;;;13.82;;
38196;SDS011;26543;51.976;4.616;2023-02-15T06:24:59;28.92;;;15.95;;
38196;SDS011;26543;51.976;4.616;2023-02-15T06:27:24;26.90;;;14.35;;
38196;SDS011;26543;51.976;4.616;2023-02-15T06:29:49;25.77;;;14.50;;
38196;SDS011;26543;51.976;4.616;2023-02-15T06:32:15;24.08;;;14.10;;
38196;SDS011;26543;51.976;4.616;2023-02-15T06:34:43;26.88;;;14.50;;
38196;SDS011;26543;51.976;4.616;2023-02-15T06:37:08;23.73;;;14.75;;
38196;SDS011;26543;51.976;4.616;2023-02-15T06:39:33;27.35;;;13.73;;
38196;SDS011;26543;51.976;4.616;2023-02-15T06:41:59;21.30;;;13.93;;
38196;SDS011;26543;51.976;4.616;2023-02-15T06:44:24;25.33;;;13.88;;
38196;SDS011;26543;51.976;4.616;2023-02-15T06:46:50;25.15;;;14.15;;
38196;SDS011;26543;51.976;4.616;2023-02-15T06:49:15;22.17;;;14.80;;
38196;SDS011;26543;51.976;4.616;2023-02-15T06:51:40;30.80;;;14.55;;
38196;SDS011;26543;51.976;4.616;2023-02-15T06:54:06;23.40;;;13.63;;
38196;SDS011;26543;51.976;4.616;2023-02-15T06:56:31;25.33;;;13.40;;
38196;SDS011;26543;51.976;4.616;2023-02-15T06:58:57;32.03;;;14.65;;
38196;SDS011;26543;51.976;4.616;2023-02-15T07:01:22;25.88;;;13.07;;
38196;SDS011;26543;51.976;4.616;2023-02-15T07:03:48;28.15;;;16.55;;
38196;SDS011;26543;51.976;4.616;2023-02-15T07:06:13;26.65;;;13.18;;
38196;SDS011;26543;51.976;4.616;2023-02-15T07:08:38;25.45;;;13.70;;
38196;SDS011;26543;51.976;4.616;2023-02-15T07:11:04;32.65;;;16.98;;
38196;SDS011;26543;51.976;4.616;2023-02-15T07:14:00;27.23;;;13.93;;
38196;SDS011;26543;51.976;4.616;2023-02-15T07:16:25;25.08;;;14.35;;
38196;SDS011;26543;51.976;4.616;2023-02-15T07:18:50;25.65;;;15.23;;
38196;SDS011;26543;51.976;4.616;2023-02-15T07:21:16;31.25;;;16.77;;
38196;SDS011;26543;51.976;4.616;2023-02-15T07:23:41;26.48;;;16.38;;
38196;SDS011;26543;51.976;4.616;2023-02-15T07:26:08;28.98;;;15.63;;
38196;SDS011;26543;51.976;4.616;2023-02-15T07:28:34;29.73;;;12.45;;
38196;SDS011;26543;51.976;4.616;2023-02-15T07:31:03;22.02;;;14.73;;
38196;SDS011;26543;51.976;4.616;2023-02-15T07:33:33;28.85;;;15.90;;
38196;SDS011;26543;51.976;4.616;2023-02-15T07:36:00;28.92;;;16.88;;
38196;SDS011;26543;51.976;4.616;2023-02-15T07:38:30;25.30;;;15.02;;
38196;SDS011;26543;51.976;4.616;2023-02-15T07:41:01;31.15;;;15.13;;
38196;SDS011;26543;51.976;4.616;2023-02-15T07:43:28;26.67;;;16.30;;
38196;SDS011;26543;51.976;4.616;2023-02-15T07:45:54;29.83;;;16.73;;
38196;SDS011;26543;51.976;4.616;2023-02-15T07:48:23;25.63;;;14.40;;
38196;SDS011;26543;51.976;4.616;2023-02-15T07:50:48;28.92;;;15.77;;
38196;SDS011;26543;51.976;4.616;2023-02-15T07:53:14;35.92;;;17.67;;
38196;SDS011;26543;51.976;4.616;2023-02-15T07:55:39;28.13;;;15.95;;
38196;SDS011;26543;51.976;4.616;2023-02-15T07:58:04;37.08;;;17.30;;
38196;SDS011;26543;51.976;4.616;2023-02-15T08:00:30;28.88;;;17.67;;
38196;SDS011;26543;51.976;4.616;2023-02-15T08:03:15;32.83;;;17.95;;
38196;SDS011;26543;51.976;4.616;2023-02-15T08:05:41;34.08;;;17.33;;
38196;SDS011;26543;51.976;4.616;2023-02-15T08:08:09;41.72;;;20.02;;
38196;SDS011;26543;51.976;4.616;2023-02-15T08:10:57;35.28;;;19.88;;
38196;SDS011;26543;51.976;4.616;2023-02-15T08:13:53;36.22;;;20.88;;
38196;SDS011;26543;51.976;4.616;2023-02-15T08:16:42;34.78;;;20.63;;
38196;SDS011;26543;51.976;4.616;2023-02-15T08:21:57;35.13;;;20.02;;
38196;SDS011;26543;51.976;4.616;2023-02-15T08:24:25;42.60;;;22.50;;
38196;SDS011;26543;51.976;4.616;2023-02-15T08:26:52;50.72;;;21.52;;
38196;SDS011;26543;51.976;4.616;2023-02-15T08:29:19;38.90;;;21.77;;
38196;SDS011;26543;51.976;4.616;2023-02-15T08:31:50;40.42;;;21.08;;
38196;SDS011;26543;51.976;4.616;2023-02-15T08:34:18;41.70;;;23.70;;
38196;SDS011;26543;51.976;4.616;2023-02-15T08:36:45;40.40;;;22.33;;
38196;SDS011;26543;51.976;4.616;2023-02-15T08:39:11;38.08;;;23.13;;
38196;SDS011;26543;51.976;4.616;2023-02-15T08:41:38;44.85;;;23.92;;
38196;SDS011;26543;51.976;4.616;2023-02-15T08:44:05;45.13;;;22.33;;
38196;SDS011;26543;51.976;4.616;2023-02-15T08:46:33;41.33;;;22.63;;
38196;SDS011;26543;51.976;4.616;2023-02-15T08:49:01;48.10;;;25.30;;
38196;SDS011;26543;51.976;4.616;2023-02-15T08:51:28;46.25;;;25.75;;
38196;SDS011;26543;51.976;4.616;2023-02-15T08:53:59;44.13;;;21.95;;
38196;SDS011;26543;51.976;4.616;2023-02-15T08:56:27;42.85;;;22.95;;
38196;SDS011;26543;51.976;4.616;2023-02-15T08:58:54;44.22;;;24.48;;
38196;SDS011;26543;51.976;4.616;2023-02-15T09:01:21;44.10;;;24.60;;
38196;SDS011;26543;51.976;4.616;2023-02-15T09:03:49;57.00;;;25.77;;
38196;SDS011;26543;51.976;4.616;2023-02-15T09:06:19;44.28;;;24.38;;
38196;SDS011;26543;51.976;4.616;2023-02-15T09:08:45;47.20;;;25.63;;
38196;SDS011;26543;51.976;4.616;2023-02-15T09:11:12;39.20;;;24.65;;
38196;SDS011;26543;51.976;4.616;2023-02-15T09:13:42;47.30;;;25.63;;
38196;SDS011;26543;51.976;4.616;2023-02-15T09:16:08;37.92;;;25.15;;
38196;SDS011;26543;51.976;4.616;2023-02-15T09:18:36;51.38;;;29.48;;
38196;SDS011;26543;51.976;4.616;2023-02-15T09:21:13;49.10;;;28.40;;
38196;SDS011;26543;51.976;4.616;2023-02-15T09:23:40;46.97;;;29.67;;
38196;SDS011;26543;51.976;4.616;2023-02-15T09:26:07;48.45;;;28.85;;
38196;SDS011;26543;51.976;4.616;2023-02-15T09:28:35;49.13;;;27.70;;
38196;SDS011;26543;51.976;4.616;2023-02-15T09:31:11;41.92;;;28.70;;
38196;SDS011;26543;51.976;4.616;2023-02-15T09:33:44;53.63;;;29.42;;
38196;SDS011;26543;51.976;4.616;2023-02-15T09:38:41;45.38;;;29.33;;
38196;SDS011;26543;51.976;4.616;2023-02-15T09:55:05;43.45;;;25.48;;
38196;SDS011;26543;51.976;4.616;2023-02-15T10:00:48;39.03;;;25.13;;
38196;SDS011;26543;51.976;4.616;2023-02-15T10:03:37;40.55;;;26.35;;
38196;SDS011;26543;51.976;4.616;2023-02-15T10:31:50;30.88;;;20.00;;
38196;SDS011;26543;51.976;4.616;2023-02-15T10:34:23;31.75;;;16.67;;
38196;SDS011;26543;51.976;4.616;2023-02-15T10:42:29;25.13;;;17.95;;
38196;SDS011;26543;51.976;4.616;2023-02-15T10:55:45;33.15;;;19.90;;
38196;SDS011;26543;51.976;4.616;2023-02-15T11:06:05;26.02;;;16.67;;
38196;SDS011;26543;51.976;4.616;2023-02-15T11:08:45;24.90;;;15.68;;
38196;SDS011;26543;51.976;4.616;2023-02-15T11:11:19;24.88;;;16.55;;
38196;SDS011;26543;51.976;4.616;2023-02-15T11:13:53;27.33;;;17.33;;
38196;SDS011;26543;51.976;4.616;2023-02-15T11:16:29;37.72;;;19.83;;
38196;SDS011;26543;51.976;4.616;2023-02-15T11:19:04;30.63;;;18.98;;
38196;SDS011;26543;51.976;4.616;2023-02-15T11:21:40;24.40;;;16.58;;
38196;SDS011;26543;51.976;4.616;2023-02-15T11:24:16;24.80;;;16.15;;
38196;SDS011;26543;51.976;4.616;2023-02-15T11:29:32;26.60;;;15.75;;
38196;SDS011;26543;51.976;4.616;2023-02-15T11:32:02;27.73;;;16.88;;
38196;SDS011;26543;51.976;4.616;2023-02-15T11:34:39;25.85;;;16.73;;
38196;SDS011;26543;51.976;4.616;2023-02-15T11:37:13;30.73;;;16.45;;
38196;SDS011;26543;51.976;4.616;2023-02-15T11:39:43;30.00;;;16.63;;
38196;SDS011;26543;51.976;4.616;2023-02-15T11:42:13;22.17;;;15.13;;
38196;SDS011;26543;51.976;4.616;2023-02-15T11:44:43;23.05;;;15.27;;
38196;SDS011;26543;51.976;4.616;2023-02-15T11:47:31;23.52;;;14.63;;
38196;SDS011;26543;51.976;4.616;2023-02-15T11:49:57;22.88;;;14.65;;
38196;SDS011;26543;51.976;4.616;2023-02-15T11:52:25;29.08;;;16.25;;
38196;SDS011;26543;51.976;4.616;2023-02-15T11:54:51;21.58;;;14.65;;
38196;SDS011;26543;51.976;4.616;2023-02-15T12:02:40;21.52;;;13.10;;
38196;SDS011;26543;51.976;4.616;2023-02-15T12:05:15;22.50;;;14.80;;
38196;SDS011;26543;51.976;4.616;2023-02-15T12:07:48;24.40;;;13.98;;
38196;SDS011;26543;51.976;4.616;2023-02-15T12:10:21;25.33;;;13.77;;
38196;SDS011;26543;51.976;4.616;2023-02-15T12:13:07;21.17;;;14.40;;
38196;SDS011;26543;51.976;4.616;2023-02-15T12:15:38;24.63;;;13.57;;
38196;SDS011;26543;51.976;4.616;2023-02-15T12:20:43;21.02;;;13.73;;
38196;SDS011;26543;51.976;4.616;2023-02-15T12:23:12;24.70;;;14.13;;
38196;SDS011;26543;51.976;4.616;2023-02-15T12:28:21;22.08;;;12.93;;
38196;SDS011;26543;51.976;4.616;2023-02-15T12:30:47;20.60;;;14.30;;
38196;SDS011;26543;51.976;4.616;2023-02-15T12:36:01;21.05;;;13.80;;
38196;SDS011;26543;51.976;4.616;2023-02-15T12:38:35;19.60;;;12.98;;
38196;SDS011;26543;51.976;4.616;2023-02-15T12:41:02;21.65;;;13.82;;
38196;SDS011;26543;51.976;4.616;2023-02-15T12:43:46;22.25;;;13.45;;
38196;SDS011;26543;51.976;4.616;2023-02-15T12:46:27;20.02;;;12.90;;
38196;SDS011;26543;51.976;4.616;2023-02-15T12:51:44;20.10;;;13.40;;
38196;SDS011;26543;51.976;4.616;2023-02-15T12:56:51;25.88;;;14.18;;
38196;SDS011;26543;51.976;4.616;2023-02-15T12:59:17;18.80;;;12.77;;
38196;SDS011;26543;51.976;4.616;2023-02-15T13:01:47;28.77;;;13.00;;
38196;SDS011;26543;51.976;4.616;2023-02-15T13:04:31;19.75;;;11.35;;
38196;SDS011;26543;51.976;4.616;2023-02-15T13:07:00;23.95;;;12.48;;
38196;SDS011;26543;51.976;4.616;2023-02-15T13:14:46;30.10;;;13.15;;
38196;SDS011;26543;51.976;4.616;2023-02-15T13:17:16;19.98;;;13.13;;
38196;SDS011;26543;51.976;4.616;2023-02-15T13:19:49;19.67;;;13.50;;
38196;SDS011;26543;51.976;4.616;2023-02-15T13:22:19;17.27;;;11.57;;
38196;SDS011;26543;51.976;4.616;2023-02-15T13:24:51;17.33;;;11.77;;
38196;SDS011;26543;51.976;4.616;2023-02-15T13:27:35;21.45;;;12.50;;
38196;SDS011;26543;51.976;4.616;2023-02-15T13:30:10;19.35;;;12.32;;
38196;SDS011;26543;51.976;4.616;2023-02-15T13:33:08;24.20;;;12.80;;
38196;SDS011;26543;51.976;4.616;2023-02-15T13:35:58;19.95;;;12.23;;
38196;SDS011;26543;51.976;4.616;2023-02-15T13:41:09;21.67;;;12.45;;
38196;SDS011;26543;51.976;4.616;2023-02-15T13:43:50;24.38;;;13.68;;
38196;SDS011;26543;51.976;4.616;2023-02-15T13:46:48;19.40;;;11.68;;
38196;SDS011;26543;51.976;4.616;2023-02-15T13:52:31;22.38;;;12.75;;
38196;SDS011;26543;51.976;4.616;2023-02-15T13:55:23;22.42;;;12.70;;
38196;SDS011;26543;51.976;4.616;2023-02-15T14:03:07;22.88;;;13.68;;
38196;SDS011;26543;51.976;4.616;2023-02-15T14:11:21;22.42;;;14.60;;
38196;SDS011;26543;51.976;4.616;2023-02-15T14:21:58;20.05;;;12.65;;
38196;SDS011;26543;51.976;4.616;2023-02-15T14:24:36;18.60;;;12.13;;
38196;SDS011;26543;51.976;4.616;2023-02-15T14:29:53;20.48;;;12.50;;
38196;SDS011;26543;51.976;4.616;2023-02-15T14:32:36;23.80;;;14.57;;
38196;SDS011;26543;51.976;4.616;2023-02-15T14:35:13;20.50;;;12.80;;
38196;SDS011;26543;51.976;4.616;2023-02-15T14:37:46;21.40;;;13.30;;
38196;SDS011;26543;51.976;4.616;2023-02-15T14:45:53;24.58;;;13.57;;
38196;SDS011;26543;51.976;4.616;2023-02-15T14:48:24;22.05;;;13.85;;
38196;SDS011;26543;51.976;4.616;2023-02-15T14:50:55;25.13;;;15.52;;
38196;SDS011;26543;51.976;4.616;2023-02-15T14:56:05;25.63;;;14.40;;
38196;SDS011;26543;51.976;4.616;2023-02-15T14:59:00;19.45;;;12.80;;
38196;SDS011;26543;51.976;4.616;2023-02-15T15:01:32;19.58;;;12.95;;
38196;SDS011;26543;51.976;4.616;2023-02-15T15:04:01;25.20;;;14.65;;
38196;SDS011;26543;51.976;4.616;2023-02-15T15:06:34;23.08;;;15.07;;
38196;SDS011;26543;51.976;4.616;2023-02-15T15:09:19;29.83;;;15.18;;
38196;SDS011;26543;51.976;4.616;2023-02-15T15:11:50;26.33;;;14.88;;
38196;SDS011;26543;51.976;4.616;2023-02-15T15:16:58;22.38;;;14.63;;
38196;SDS011;26543;51.976;4.616;2023-02-15T15:22:20;23.67;;;15.82;;
38196;SDS011;26543;51.976;4.616;2023-02-15T15:30:46;27.67;;;16.75;;
38196;SDS011;26543;51.976;4.616;2023-02-15T15:49:43;26.90;;;17.60;;
38196;SDS011;26543;51.976;4.616;2023-02-15T15:52:13;26.10;;;17.75;;
38196;SDS011;26543;51.976;4.616;2023-02-15T15:54:40;25.83;;;18.10;;
38196;SDS011;26543;51.976;4.616;2023-02-15T15:59:45;33.70;;;19.15;;
38196;SDS011;26543;51.976;4.616;2023-02-15T16:02:13;30.00;;;19.45;;
38196;SDS011;26543;51.976;4.616;2023-02-15T16:04:44;29.17;;;18.35;;
38196;SDS011;26543;51.976;4.616;2023-02-15T16:07:20;29.30;;;19.65;;
38196;SDS011;26543;51.976;4.616;2023-02-15T16:12:20;32.83;;;18.30;;
38196;SDS011;26543;51.976;4.616;2023-02-15T16:14:49;31.25;;;18.20;;
38196;SDS011;26543;51.976;4.616;2023-02-15T16:17:20;29.63;;;18.33;;
38196;SDS011;26543;51.976;4.616;2023-02-15T16:19:47;30.15;;;19.55;;
38196;SDS011;26543;51.976;4.616;2023-02-15T16:22:19;30.67;;;18.38;;
38196;SDS011;26543;51.976;4.616;2023-02-15T16:27:55;26.88;;;18.70;;
38196;SDS011;26543;51.976;4.616;2023-02-15T16:30:31;33.25;;;19.20;;
38196;SDS011;26543;51.976;4.616;2023-02-15T16:35:30;27.55;;;18.27;;
38196;SDS011;26543;51.976;4.616;2023-02-15T16:37:58;33.03;;;19.33;;
38196;SDS011;26543;51.976;4.616;2023-02-15T16:42:53;27.50;;;19.52;;
38196;SDS011;26543;51.976;4.616;2023-02-15T16:45:22;28.05;;;16.52;;
38196;SDS011;26543;51.976;4.616;2023-02-15T16:47:55;30.40;;;17.65;;
38196;SDS011;26543;51.976;4.616;2023-02-15T16:50:23;31.83;;;18.10;;
38196;SDS011;26543;51.976;4.616;2023-02-15T16:52:59;29.15;;;18.15;;
38196;SDS011;26543;51.976;4.616;2023-02-15T16:55:27;30.52;;;16.55;;
38196;SDS011;26543;51.976;4.616;2023-02-15T16:58:04;34.55;;;19.05;;
38196;SDS011;26543;51.976;4.616;2023-02-15T17:00:32;33.92;;;19.02;;
38196;SDS011;26543;51.976;4.616;2023-02-15T17:05:40;31.52;;;18.42;;
38196;SDS011;26543;51.976;4.616;2023-02-15T17:08:13;29.35;;;17.02;;
38196;SDS011;26543;51.976;4.616;2023-02-15T17:10:46;27.83;;;17.15;;
38196;SDS011;26543;51.976;4.616;2023-02-15T17:13:28;31.15;;;17.92;;
38196;SDS011;26543;51.976;4.616;2023-02-15T17:18:26;29.98;;;18.05;;
38196;SDS011;26543;51.976;4.616;2023-02-15T17:20:54;30.55;;;18.25;;
38196;SDS011;26543;51.976;4.616;2023-02-15T17:23:28;31.95;;;16.90;;
38196;SDS011;26543;51.976;4.616;2023-02-15T17:25:57;22.08;;;15.63;;
38196;SDS011;26543;51.976;4.616;2023-02-15T17:28:24;30.08;;;17.05;;
38196;SDS011;26543;51.976;4.616;2023-02-15T17:30:53;27.42;;;16.00;;
38196;SDS011;26543;51.976;4.616;2023-02-15T17:33:35;26.85;;;17.15;;
38196;SDS011;26543;51.976;4.616;2023-02-15T17:41:21;27.27;;;18.55;;
38196;SDS011;26543;51.976;4.616;2023-02-15T17:43:47;33.28;;;19.63;;
38196;SDS011;26543;51.976;4.616;2023-02-15T17:46:15;36.65;;;18.95;;
38196;SDS011;26543;51.976;4.616;2023-02-15T17:48:47;26.65;;;16.58;;
38196;SDS011;26543;51.976;4.616;2023-02-15T17:51:19;29.38;;;17.63;;
38196;SDS011;26543;51.976;4.616;2023-02-15T17:53:48;29.55;;;17.17;;
38196;SDS011;26543;51.976;4.616;2023-02-15T17:56:32;28.10;;;17.23;;
38196;SDS011;26543;51.976;4.616;2023-02-15T17:58:58;30.52;;;16.52;;
38196;SDS011;26543;51.976;4.616;2023-02-15T18:01:24;25.52;;;16.83;;
38196;SDS011;26543;51.976;4.616;2023-02-15T18:04:08;22.58;;;14.77;;
38196;SDS011;26543;51.976;4.616;2023-02-15T18:06:55;34.08;;;19.13;;
38196;SDS011;26543;51.976;4.616;2023-02-15T18:09:39;24.33;;;15.38;;
38196;SDS011;26543;51.976;4.616;2023-02-15T18:12:23;26.85;;;17.45;;
38196;SDS011;26543;51.976;4.616;2023-02-15T18:14:54;31.02;;;18.00;;
38196;SDS011;26543;51.976;4.616;2023-02-15T18:19:55;26.13;;;15.90;;
38196;SDS011;26543;51.976;4.616;2023-02-15T18:22:20;28.65;;;17.08;;
38196;SDS011;26543;51.976;4.616;2023-02-15T18:24:46;31.63;;;18.17;;
38196;SDS011;26543;51.976;4.616;2023-02-15T18:27:14;29.17;;;16.77;;
38196;SDS011;26543;51.976;4.616;2023-02-15T18:29:40;26.52;;;16.23;;
38196;SDS011;26543;51.976;4.616;2023-02-15T18:32:06;29.05;;;17.05;;
38196;SDS011;26543;51.976;4.616;2023-02-15T18:34:38;28.88;;;17.90;;